Broaddus, Texas
Current Conditions -  °F | °C
As of 9:53 AM on Saturday 20 Dec 2014 (Local Time) from KLFK Reporting Station
Haze Haze  
Wind Chill: 50°   Ceiling: 800
Heat Index: 50°   Visibility: 5mi
Dew Point: 44°   Wind: 7mph
Humidity: 80%   Direction: 60°ENE
Pressure: 30.24"   Gusts: NA
Location:  31.31°N, 94.27°W
Report Text: KLFK 201553Z AUTO 06006KT 5SM HZ OVC008 10/07 A3024 RMK AO2 SLP240 T01000067
Loading
Personal Weather Stations






























Interactive Weather Map New forecast layout! Learn more

10-Day Weather Forecast

Advertisements
Track Severe Weather on mobile